sensor_id;sensor_type;location;lat;lon;timestamp;temperature;humidity
27224;DHT22;14965;50.660;13.226;2023-06-04T00:00:12;7.20;99.90
27224;DHT22;14965;50.660;13.226;2023-06-04T00:02:38;7.20;99.90
27224;DHT22;14965;50.660;13.226;2023-06-04T00:05:06;7.20;99.90
27224;DHT22;14965;50.660;13.226;2023-06-04T00:07:32;7.10;99.90
27224;DHT22;14965;50.660;13.226;2023-06-04T00:10:00;7.00;99.90
27224;DHT22;14965;50.660;13.226;2023-06-04T00:12:25;7.00;99.90
27224;DHT22;14965;50.660;13.226;2023-06-04T00:14:52;7.00;99.90
27224;DHT22;14965;50.660;13.226;2023-06-04T00:17:17;6.90;99.90
27224;DHT22;14965;50.660;13.226;2023-06-04T00:19:44;6.90;99.90
27224;DHT22;14965;50.660;13.226;2023-06-04T00:22:11;6.80;99.90
27224;DHT22;14965;50.660;13.226;2023-06-04T00:24:37;6.80;99.90
27224;DHT22;14965;50.660;13.226;2023-06-04T00:27:07;6.70;99.90
27224;DHT22;14965;50.660;13.226;2023-06-04T00:29:33;6.70;99.90
27224;DHT22;14965;50.660;13.226;2023-06-04T00:31:59;6.70;99.90
27224;DHT22;14965;50.660;13.226;2023-06-04T00:34:25;6.80;99.90
27224;DHT22;14965;50.660;13.226;2023-06-04T00:36:51;6.80;99.90
27224;DHT22;14965;50.660;13.226;2023-06-04T00:39:17;6.80;99.90
27224;DHT22;14965;50.660;13.226;2023-06-04T00:41:43;6.90;99.90
27224;DHT22;14965;50.660;13.226;2023-06-04T00:44:10;6.90;99.90
27224;DHT22;14965;50.660;13.226;2023-06-04T00:46:36;6.90;99.90
27224;DHT22;14965;50.660;13.226;2023-06-04T00:49:02;6.90;99.90
27224;DHT22;14965;50.660;13.226;2023-06-04T00:51:31;6.90;99.90
27224;DHT22;14965;50.660;13.226;2023-06-04T00:53:58;6.80;99.90
27224;DHT22;14965;50.660;13.226;2023-06-04T00:56:25;6.80;99.90
27224;DHT22;14965;50.660;13.226;2023-06-04T00:58:51;6.70;99.90
27224;DHT22;14965;50.660;13.226;2023-06-04T01:01:23;6.60;99.90
27224;DHT22;14965;50.660;13.226;2023-06-04T01:03:55;6.60;99.90
27224;DHT22;14965;50.660;13.226;2023-06-04T01:06:30;6.50;99.90
27224;DHT22;14965;50.660;13.226;2023-06-04T01:09:02;6.40;99.90
27224;DHT22;14965;50.660;13.226;2023-06-04T01:11:33;6.50;99.90
27224;DHT22;14965;50.660;13.226;2023-06-04T01:14:00;6.50;99.90
27224;DHT22;14965;50.660;13.226;2023-06-04T01:16:32;6.40;99.90
27224;DHT22;14965;50.660;13.226;2023-06-04T01:19:02;6.40;99.90
27224;DHT22;14965;50.660;13.226;2023-06-04T01:21:37;6.40;99.90
27224;DHT22;14965;50.660;13.226;2023-06-04T01:24:05;6.40;99.90
27224;DHT22;14965;50.660;13.226;2023-06-04T01:26:34;6.40;99.90
27224;DHT22;14965;50.660;13.226;2023-06-04T01:29:00;6.40;99.90
27224;DHT22;14965;50.660;13.226;2023-06-04T01:31:29;6.50;99.90
27224;DHT22;14965;50.660;13.226;2023-06-04T01:33:56;6.50;99.90
27224;DHT22;14965;50.660;13.226;2023-06-04T01:36:22;6.50;99.90
27224;DHT22;14965;50.660;13.226;2023-06-04T01:38:48;6.50;99.90
27224;DHT22;14965;50.660;13.226;2023-06-04T01:41:14;6.60;99.90
27224;DHT22;14965;50.660;13.226;2023-06-04T01:43:40;6.60;99.90
27224;DHT22;14965;50.660;13.226;2023-06-04T01:46:06;6.60;99.90
27224;DHT22;14965;50.660;13.226;2023-06-04T01:48:34;6.60;99.90
27224;DHT22;14965;50.660;13.226;2023-06-04T01:51:00;6.60;99.90
27224;DHT22;14965;50.660;13.226;2023-06-04T01:53:27;6.60;99.90
27224;DHT22;14965;50.660;13.226;2023-06-04T01:55:53;6.60;99.90
27224;DHT22;14965;50.660;13.226;2023-06-04T01:58:19;6.50;99.90
27224;DHT22;14965;50.660;13.226;2023-06-04T02:00:45;6.40;99.90
27224;DHT22;14965;50.660;13.226;2023-06-04T02:03:11;6.30;99.90
27224;DHT22;14965;50.660;13.226;2023-06-04T02:05:38;6.30;99.90
27224;DHT22;14965;50.660;13.226;2023-06-04T02:08:04;6.10;99.90
27224;DHT22;14965;50.660;13.226;2023-06-04T02:10:31;6.00;99.90
27224;DHT22;14965;50.660;13.226;2023-06-04T02:12:58;5.90;99.90
27224;DHT22;14965;50.660;13.226;2023-06-04T02:15:26;5.90;99.90
27224;DHT22;14965;50.660;13.226;2023-06-04T02:17:56;5.90;99.90
27224;DHT22;14965;50.660;13.226;2023-06-04T02:20:23;5.80;99.90
27224;DHT22;14965;50.660;13.226;2023-06-04T02:22:51;5.80;99.90
27224;DHT22;14965;50.660;13.226;2023-06-04T02:25:17;5.80;99.90
27224;DHT22;14965;50.660;13.226;2023-06-04T02:27:43;5.80;99.90
27224;DHT22;14965;50.660;13.226;2023-06-04T02:30:10;5.70;99.90
27224;DHT22;14965;50.660;13.226;2023-06-04T02:32:36;5.60;99.90
27224;DHT22;14965;50.660;13.226;2023-06-04T02:35:02;5.60;99.90
27224;DHT22;14965;50.660;13.226;2023-06-04T02:37:29;5.60;99.90
27224;DHT22;14965;50.660;13.226;2023-06-04T02:39:57;5.60;99.90
27224;DHT22;14965;50.660;13.226;2023-06-04T02:42:23;5.60;99.90
27224;DHT22;14965;50.660;13.226;2023-06-04T02:44:49;5.60;99.90
27224;DHT22;14965;50.660;13.226;2023-06-04T02:47:15;5.60;99.90
27224;DHT22;14965;50.660;13.226;2023-06-04T02:49:41;5.50;99.90
27224;DHT22;14965;50.660;13.226;2023-06-04T02:52:06;5.40;99.90
27224;DHT22;14965;50.660;13.226;2023-06-04T02:54:32;5.50;99.90
27224;DHT22;14965;50.660;13.226;2023-06-04T02:56:59;5.50;99.90
27224;DHT22;14965;50.660;13.226;2023-06-04T02:59:25;5.50;99.90
27224;DHT22;14965;50.660;13.226;2023-06-04T03:01:51;5.40;99.90
27224;DHT22;14965;50.660;13.226;2023-06-04T03:04:18;5.40;99.90
27224;DHT22;14965;50.660;13.226;2023-06-04T03:06:44;5.40;99.90
27224;DHT22;14965;50.660;13.226;2023-06-04T03:09:11;5.40;99.90
27224;DHT22;14965;50.660;13.226;2023-06-04T03:11:37;5.50;99.90
27224;DHT22;14965;50.660;13.226;2023-06-04T03:14:05;5.60;99.90
27224;DHT22;14965;50.660;13.226;2023-06-04T03:16:31;5.70;99.90
27224;DHT22;14965;50.660;13.226;2023-06-04T03:18:58;5.70;99.90
27224;DHT22;14965;50.660;13.226;2023-06-04T03:21:24;5.70;99.90
27224;DHT22;14965;50.660;13.226;2023-06-04T03:23:50;5.70;99.90
27224;DHT22;14965;50.660;13.226;2023-06-04T03:26:16;5.70;99.90
27224;DHT22;14965;50.660;13.226;2023-06-04T03:28:42;5.70;99.90
27224;DHT22;14965;50.660;13.226;2023-06-04T03:31:09;5.80;99.90
27224;DHT22;14965;50.660;13.226;2023-06-04T03:33:35;5.80;99.90
27224;DHT22;14965;50.660;13.226;2023-06-04T03:36:01;5.80;99.90
27224;DHT22;14965;50.660;13.226;2023-06-04T03:38:28;5.80;99.90
27224;DHT22;14965;50.660;13.226;2023-06-04T03:40:54;5.70;99.90
27224;DHT22;14965;50.660;13.226;2023-06-04T03:43:20;5.70;99.90
27224;DHT22;14965;50.660;13.226;2023-06-04T03:45:46;5.80;99.90
27224;DHT22;14965;50.660;13.226;2023-06-04T03:48:14;5.80;99.90
27224;DHT22;14965;50.660;13.226;2023-06-04T03:50:42;5.80;99.90
27224;DHT22;14965;50.660;13.226;2023-06-04T03:53:08;5.80;99.90
27224;DHT22;14965;50.660;13.226;2023-06-04T03:55:34;5.90;99.90
27224;DHT22;14965;50.660;13.226;2023-06-04T03:58:00;6.00;99.90
27224;DHT22;14965;50.660;13.226;2023-06-04T04:00:27;6.20;99.90
27224;DHT22;14965;50.660;13.226;2023-06-04T04:02:53;6.30;99.90
27224;DHT22;14965;50.660;13.226;2023-06-04T04:05:20;6.40;99.90
27224;DHT22;14965;50.660;13.226;2023-06-04T04:07:46;6.50;99.90
27224;DHT22;14965;50.660;13.226;2023-06-04T04:10:13;6.60;99.90
27224;DHT22;14965;50.660;13.226;2023-06-04T04:12:39;6.70;99.90
27224;DHT22;14965;50.660;13.226;2023-06-04T04:15:06;6.80;99.90
27224;DHT22;14965;50.660;13.226;2023-06-04T04:17:32;6.90;99.90
27224;DHT22;14965;50.660;13.226;2023-06-04T04:19:58;7.10;99.90
27224;DHT22;14965;50.660;13.226;2023-06-04T04:22:25;7.30;99.90
27224;DHT22;14965;50.660;13.226;2023-06-04T04:24:51;7.60;99.90
27224;DHT22;14965;50.660;13.226;2023-06-04T04:27:17;8.40;99.90
27224;DHT22;14965;50.660;13.226;2023-06-04T04:29:43;9.80;99.90
27224;DHT22;14965;50.660;13.226;2023-06-04T04:32:09;11.30;99.90
27224;DHT22;14965;50.660;13.226;2023-06-04T04:34:36;12.80;99.90
27224;DHT22;14965;50.660;13.226;2023-06-04T04:37:02;14.20;99.90
27224;DHT22;14965;50.660;13.226;2023-06-04T04:39:30;15.20;95.80
27224;DHT22;14965;50.660;13.226;2023-06-04T04:41:56;15.90;92.80
27224;DHT22;14965;50.660;13.226;2023-06-04T04:44:22;16.30;90.80
27224;DHT22;14965;50.660;13.226;2023-06-04T04:46:48;16.80;89.10
27224;DHT22;14965;50.660;13.226;2023-06-04T04:49:14;17.10;86.00
27224;DHT22;14965;50.660;13.226;2023-06-04T04:51:40;17.40;84.10
27224;DHT22;14965;50.660;13.226;2023-06-04T04:54:06;17.90;82.10
27224;DHT22;14965;50.660;13.226;2023-06-04T04:56:34;18.50;80.70
27224;DHT22;14965;50.660;13.226;2023-06-04T04:59:00;19.00;78.30
27224;DHT22;14965;50.660;13.226;2023-06-04T05:01:27;19.40;76.80
27224;DHT22;14965;50.660;13.226;2023-06-04T05:03:53;19.70;74.50
27224;DHT22;14965;50.660;13.226;2023-06-04T05:06:19;20.10;72.80
27224;DHT22;14965;50.660;13.226;2023-06-04T05:08:45;20.40;71.00
27224;DHT22;14965;50.660;13.226;2023-06-04T05:11:11;20.00;70.00
27224;DHT22;14965;50.660;13.226;2023-06-04T05:13:38;20.30;70.60
27224;DHT22;14965;50.660;13.226;2023-06-04T05:16:04;20.80;70.00
27224;DHT22;14965;50.660;13.226;2023-06-04T05:18:30;21.30;68.20
27224;DHT22;14965;50.660;13.226;2023-06-04T05:20:56;21.30;68.40
27224;DHT22;14965;50.660;13.226;2023-06-04T05:23:23;21.60;66.80
27224;DHT22;14965;50.660;13.226;2023-06-04T05:25:49;21.90;66.10
27224;DHT22;14965;50.660;13.226;2023-06-04T05:28:15;22.30;64.70
27224;DHT22;14965;50.660;13.226;2023-06-04T05:30:42;22.60;63.50
27224;DHT22;14965;50.660;13.226;2023-06-04T05:33:08;22.70;62.70
27224;DHT22;14965;50.660;13.226;2023-06-04T05:35:34;22.90;62.00
27224;DHT22;14965;50.660;13.226;2023-06-04T05:38:00;23.00;61.00
27224;DHT22;14965;50.660;13.226;2023-06-04T05:40:26;23.30;60.00
27224;DHT22;14965;50.660;13.226;2023-06-04T05:42:52;23.50;60.40
27224;DHT22;14965;50.660;13.226;2023-06-04T05:45:17;23.70;59.70
27224;DHT22;14965;50.660;13.226;2023-06-04T05:47:45;23.80;59.10
27224;DHT22;14965;50.660;13.226;2023-06-04T05:50:11;23.80;58.40
27224;DHT22;14965;50.660;13.226;2023-06-04T05:52:37;23.90;58.00
27224;DHT22;14965;50.660;13.226;2023-06-04T05:55:03;23.80;57.70
27224;DHT22;14965;50.660;13.226;2023-06-04T05:57:29;23.90;57.90
27224;DHT22;14965;50.660;13.226;2023-06-04T05:59:55;24.00;57.70
27224;DHT22;14965;50.660;13.226;2023-06-04T06:02:21;23.90;57.60
27224;DHT22;14965;50.660;13.226;2023-06-04T06:04:48;23.90;57.70
27224;DHT22;14965;50.660;13.226;2023-06-04T06:07:14;23.80;58.20
27224;DHT22;14965;50.660;13.226;2023-06-04T06:09:40;23.10;56.80
27224;DHT22;14965;50.660;13.226;2023-06-04T06:12:06;22.80;57.90
27224;DHT22;14965;50.660;13.226;2023-06-04T06:14:32;22.30;57.30
27224;DHT22;14965;50.660;13.226;2023-06-04T06:16:58;22.00;59.30
27224;DHT22;14965;50.660;13.226;2023-06-04T06:19:24;20.80;59.90
27224;DHT22;14965;50.660;13.226;2023-06-04T06:21:52;20.20;63.30
27224;DHT22;14965;50.660;13.226;2023-06-04T06:24:18;20.20;62.30
27224;DHT22;14965;50.660;13.226;2023-06-04T06:26:44;19.30;63.00
27224;DHT22;14965;50.660;13.226;2023-06-04T06:29:10;18.70;65.00
27224;DHT22;14965;50.660;13.226;2023-06-04T06:31:36;18.20;66.70
27224;DHT22;14965;50.660;13.226;2023-06-04T06:34:02;18.00;67.90
27224;DHT22;14965;50.660;13.226;2023-06-04T06:36:28;17.90;68.60
27224;DHT22;14965;50.660;13.226;2023-06-04T06:38:55;17.80;70.00
27224;DHT22;14965;50.660;13.226;2023-06-04T06:41:21;18.20;70.00
27224;DHT22;14965;50.660;13.226;2023-06-04T06:43:47;18.00;70.70
27224;DHT22;14965;50.660;13.226;2023-06-04T06:46:13;18.20;71.20
27224;DHT22;14965;50.660;13.226;2023-06-04T06:48:39;17.90;70.00
27224;DHT22;14965;50.660;13.226;2023-06-04T06:51:05;17.80;70.40
27224;DHT22;14965;50.660;13.226;2023-06-04T06:53:31;18.10;71.40
27224;DHT22;14965;50.660;13.226;2023-06-04T06:55:58;17.90;70.30
27224;DHT22;14965;50.660;13.226;2023-06-04T06:58:24;18.00;72.40
27224;DHT22;14965;50.660;13.226;2023-06-04T07:00:51;17.90;72.20
27224;DHT22;14965;50.660;13.226;2023-06-04T07:03:17;17.90;72.10
27224;DHT22;14965;50.660;13.226;2023-06-04T07:05:42;17.90;72.60
27224;DHT22;14965;50.660;13.226;2023-06-04T07:08:08;18.10;72.40
27224;DHT22;14965;50.660;13.226;2023-06-04T07:10:34;18.10;71.90
27224;DHT22;14965;50.660;13.226;2023-06-04T07:13:02;18.00;73.40
27224;DHT22;14965;50.660;13.226;2023-06-04T07:15:28;18.20;72.00
27224;DHT22;14965;50.660;13.226;2023-06-04T07:17:54;18.20;73.50
27224;DHT22;14965;50.660;13.226;2023-06-04T07:20:19;18.20;73.00
27224;DHT22;14965;50.660;13.226;2023-06-04T07:22:45;17.80;73.40
27224;DHT22;14965;50.660;13.226;2023-06-04T07:25:11;17.80;73.50
27224;DHT22;14965;50.660;13.226;2023-06-04T07:27:37;17.80;73.80
27224;DHT22;14965;50.660;13.226;2023-06-04T07:30:06;17.60;76.00
27224;DHT22;14965;50.660;13.226;2023-06-04T07:32:32;17.50;76.20
27224;DHT22;14965;50.660;13.226;2023-06-04T07:34:58;17.50;72.50
27224;DHT22;14965;50.660;13.226;2023-06-04T07:37:24;17.50;74.20
27224;DHT22;14965;50.660;13.226;2023-06-04T07:39:50;17.70;71.60
27224;DHT22;14965;50.660;13.226;2023-06-04T07:42:17;17.80;72.30
27224;DHT22;14965;50.660;13.226;2023-06-04T07:44:43;18.00;71.70
27224;DHT22;14965;50.660;13.226;2023-06-04T07:47:10;18.00;72.60
27224;DHT22;14965;50.660;13.226;2023-06-04T07:49:36;18.10;71.20
27224;DHT22;14965;50.660;13.226;2023-06-04T07:52:02;18.20;71.50
27224;DHT22;14965;50.660;13.226;2023-06-04T07:54:29;18.10;70.80
27224;DHT22;14965;50.660;13.226;2023-06-04T07:56:54;18.00;71.50
27224;DHT22;14965;50.660;13.226;2023-06-04T07:59:31;17.90;70.20
27224;DHT22;14965;50.660;13.226;2023-06-04T08:02:00;17.80;70.00
27224;DHT22;14965;50.660;13.226;2023-06-04T08:04:28;17.80;70.00
27224;DHT22;14965;50.660;13.226;2023-06-04T08:06:54;17.80;70.00
27224;DHT22;14965;50.660;13.226;2023-06-04T08:09:19;17.70;70.30
27224;DHT22;14965;50.660;13.226;2023-06-04T08:11:45;17.70;72.00
27224;DHT22;14965;50.660;13.226;2023-06-04T08:14:12;17.70;69.90
27224;DHT22;14965;50.660;13.226;2023-06-04T08:16:38;17.70;70.00
27224;DHT22;14965;50.660;13.226;2023-06-04T08:19:04;17.80;69.20
27224;DHT22;14965;50.660;13.226;2023-06-04T08:21:32;17.70;69.30
27224;DHT22;14965;50.660;13.226;2023-06-04T08:23:58;17.60;70.80
27224;DHT22;14965;50.660;13.226;2023-06-04T08:26:24;17.70;70.50
27224;DHT22;14965;50.660;13.226;2023-06-04T08:28:50;17.70;69.70
27224;DHT22;14965;50.660;13.226;2023-06-04T08:31:16;17.90;68.90
27224;DHT22;14965;50.660;13.226;2023-06-04T08:33:44;18.10;71.50
27224;DHT22;14965;50.660;13.226;2023-06-04T08:36:12;18.10;68.10
27224;DHT22;14965;50.660;13.226;2023-06-04T08:38:40;18.10;68.70
27224;DHT22;14965;50.660;13.226;2023-06-04T08:41:12;18.00;70.00
27224;DHT22;14965;50.660;13.226;2023-06-04T08:43:42;18.10;68.40
27224;DHT22;14965;50.660;13.226;2023-06-04T08:46:08;18.10;68.00
27224;DHT22;14965;50.660;13.226;2023-06-04T08:48:35;18.00;69.10
27224;DHT22;14965;50.660;13.226;2023-06-04T08:51:05;18.30;70.20
27224;DHT22;14965;50.660;13.226;2023-06-04T08:53:32;18.40;69.80
27224;DHT22;14965;50.660;13.226;2023-06-04T08:56:00;18.50;70.80
27224;DHT22;14965;50.660;13.226;2023-06-04T08:58:29;18.10;69.30
27224;DHT22;14965;50.660;13.226;2023-06-04T09:00:57;18.00;71.10
27224;DHT22;14965;50.660;13.226;2023-06-04T09:03:23;18.10;71.30
27224;DHT22;14965;50.660;13.226;2023-06-04T09:05:52;18.00;71.90
27224;DHT22;14965;50.660;13.226;2023-06-04T09:08:19;18.20;69.80
27224;DHT22;14965;50.660;13.226;2023-06-04T09:10:49;18.40;68.70
27224;DHT22;14965;50.660;13.226;2023-06-04T09:13:21;18.60;65.60
27224;DHT22;14965;50.660;13.226;2023-06-04T09:15:58;18.70;67.30
27224;DHT22;14965;50.660;13.226;2023-06-04T09:18:25;18.70;68.70
27224;DHT22;14965;50.660;13.226;2023-06-04T09:21:00;18.50;68.10
27224;DHT22;14965;50.660;13.226;2023-06-04T09:23:27;18.40;69.60
27224;DHT22;14965;50.660;13.226;2023-06-04T09:25:53;18.50;70.10
27224;DHT22;14965;50.660;13.226;2023-06-04T09:28:20;18.50;69.60
27224;DHT22;14965;50.660;13.226;2023-06-04T09:30:51;18.50;70.00
27224;DHT22;14965;50.660;13.226;2023-06-04T09:33:17;18.50;71.80
27224;DHT22;14965;50.660;13.226;2023-06-04T09:35:53;18.60;70.20
27224;DHT22;14965;50.660;13.226;2023-06-04T09:38:19;18.90;70.60
27224;DHT22;14965;50.660;13.226;2023-06-04T09:40:45;18.90;69.20
27224;DHT22;14965;50.660;13.226;2023-06-04T09:43:22;18.80;70.00
27224;DHT22;14965;50.660;13.226;2023-06-04T09:45:48;18.90;70.20
27224;DHT22;14965;50.660;13.226;2023-06-04T09:48:19;19.10;72.00
27224;DHT22;14965;50.660;13.226;2023-06-04T09:50:45;19.10;69.40
27224;DHT22;14965;50.660;13.226;2023-06-04T09:53:14;19.10;68.80
27224;DHT22;14965;50.660;13.226;2023-06-04T09:55:40;19.00;69.20
27224;DHT22;14965;50.660;13.226;2023-06-04T09:58:06;19.00;69.60
27224;DHT22;14965;50.660;13.226;2023-06-04T10:00:34;18.90;68.50
27224;DHT22;14965;50.660;13.226;2023-06-04T10:03:02;18.80;69.60
27224;DHT22;14965;50.660;13.226;2023-06-04T10:05:29;18.70;70.40
27224;DHT22;14965;50.660;13.226;2023-06-04T10:08:00;18.80;70.70
27224;DHT22;14965;50.660;13.226;2023-06-04T10:10:29;18.80;68.50
27224;DHT22;14965;50.660;13.226;2023-06-04T10:13:00;18.70;69.10
27224;DHT22;14965;50.660;13.226;2023-06-04T10:15:30;18.90;69.10
27224;DHT22;14965;50.660;13.226;2023-06-04T10:17:59;19.00;68.60
27224;DHT22;14965;50.660;13.226;2023-06-04T10:20:27;19.00;71.00
27224;DHT22;14965;50.660;13.226;2023-06-04T10:22:54;19.10;70.70
27224;DHT22;14965;50.660;13.226;2023-06-04T10:25:20;19.00;67.70
27224;DHT22;14965;50.660;13.226;2023-06-04T10:27:46;19.20;71.20
27224;DHT22;14965;50.660;13.226;2023-06-04T10:30:13;19.20;68.80
27224;DHT22;14965;50.660;13.226;2023-06-04T10:32:39;19.30;68.00
27224;DHT22;14965;50.660;13.226;2023-06-04T10:35:08;19.30;71.20
27224;DHT22;14965;50.660;13.226;2023-06-04T10:37:34;19.40;67.70
27224;DHT22;14965;50.660;13.226;2023-06-04T10:40:00;19.30;69.30
27224;DHT22;14965;50.660;13.226;2023-06-04T10:42:37;19.30;69.50
27224;DHT22;14965;50.660;13.226;2023-06-04T10:45:05;19.60;72.40
27224;DHT22;14965;50.660;13.226;2023-06-04T10:47:33;19.60;69.40
27224;DHT22;14965;50.660;13.226;2023-06-04T10:50:08;19.50;65.10
27224;DHT22;14965;50.660;13.226;2023-06-04T10:52:35;19.40;67.50
27224;DHT22;14965;50.660;13.226;2023-06-04T10:55:03;19.50;70.80
27224;DHT22;14965;50.660;13.226;2023-06-04T10:57:30;19.50;69.00
27224;DHT22;14965;50.660;13.226;2023-06-04T10:59:57;19.70;68.80
27224;DHT22;14965;50.660;13.226;2023-06-04T11:02:24;19.70;64.80
27224;DHT22;14965;50.660;13.226;2023-06-04T11:04:59;19.80;66.60
27224;DHT22;14965;50.660;13.226;2023-06-04T11:07:27;19.70;63.60
27224;DHT22;14965;50.660;13.226;2023-06-04T11:09:53;19.50;64.10
27224;DHT22;14965;50.660;13.226;2023-06-04T11:12:19;19.70;64.60
27224;DHT22;14965;50.660;13.226;2023-06-04T11:14:53;19.80;66.10
27224;DHT22;14965;50.660;13.226;2023-06-04T11:17:20;19.80;69.30
27224;DHT22;14965;50.660;13.226;2023-06-04T11:19:45;19.70;68.00
27224;DHT22;14965;50.660;13.226;2023-06-04T11:22:12;19.70;67.10
27224;DHT22;14965;50.660;13.226;2023-06-04T11:24:39;19.70;68.20
27224;DHT22;14965;50.660;13.226;2023-06-04T11:27:05;19.60;68.10
27224;DHT22;14965;50.660;13.226;2023-06-04T11:29:32;19.40;67.70
27224;DHT22;14965;50.660;13.226;2023-06-04T11:31:58;19.30;67.70
27224;DHT22;14965;50.660;13.226;2023-06-04T11:34:24;19.30;68.10
27224;DHT22;14965;50.660;13.226;2023-06-04T11:36:51;19.30;68.30
27224;DHT22;14965;50.660;13.226;2023-06-04T11:39:17;19.30;69.40
27224;DHT22;14965;50.660;13.226;2023-06-04T11:41:44;19.40;69.20
27224;DHT22;14965;50.660;13.226;2023-06-04T11:44:12;19.70;69.00
27224;DHT22;14965;50.660;13.226;2023-06-04T11:46:40;19.70;67.70
27224;DHT22;14965;50.660;13.226;2023-06-04T11:49:07;19.60;66.70
27224;DHT22;14965;50.660;13.226;2023-06-04T11:51:33;19.50;68.20
27224;DHT22;14965;50.660;13.226;2023-06-04T11:53:59;19.40;67.40
27224;DHT22;14965;50.660;13.226;2023-06-04T11:56:26;19.50;69.60
27224;DHT22;14965;50.660;13.226;2023-06-04T11:58:55;19.50;68.50
27224;DHT22;14965;50.660;13.226;2023-06-04T12:01:21;19.40;67.60
27224;DHT22;14965;50.660;13.226;2023-06-04T12:03:47;19.30;68.00
27224;DHT22;14965;50.660;13.226;2023-06-04T12:06:15;19.20;68.50
27224;DHT22;14965;50.660;13.226;2023-06-04T12:08:46;19.20;67.80
27224;DHT22;14965;50.660;13.226;2023-06-04T12:11:28;19.30;67.10
27224;DHT22;14965;50.660;13.226;2023-06-04T12:13:57;19.40;67.70
27224;DHT22;14965;50.660;13.226;2023-06-04T12:16:24;19.40;67.30
27224;DHT22;14965;50.660;13.226;2023-06-04T12:18:51;19.30;67.20
27224;DHT22;14965;50.660;13.226;2023-06-04T12:21:20;19.30;66.90
27224;DHT22;14965;50.660;13.226;2023-06-04T12:23:47;19.30;68.10
27224;DHT22;14965;50.660;13.226;2023-06-04T12:26:20;19.50;70.20
27224;DHT22;14965;50.660;13.226;2023-06-04T12:29:00;19.60;69.50
27224;DHT22;14965;50.660;13.226;2023-06-04T12:31:26;19.70;68.10
27224;DHT22;14965;50.660;13.226;2023-06-04T12:33:52;19.70;67.70
27224;DHT22;14965;50.660;13.226;2023-06-04T12:36:18;19.90;69.20
27224;DHT22;14965;50.660;13.226;2023-06-04T12:38:44;20.00;67.90
27224;DHT22;14965;50.660;13.226;2023-06-04T12:41:09;20.00;65.70
27224;DHT22;14965;50.660;13.226;2023-06-04T12:43:35;19.70;66.20
27224;DHT22;14965;50.660;13.226;2023-06-04T12:46:02;19.50;66.60
27224;DHT22;14965;50.660;13.226;2023-06-04T12:48:28;19.50;67.50
27224;DHT22;14965;50.660;13.226;2023-06-04T12:50:54;19.40;66.80
27224;DHT22;14965;50.660;13.226;2023-06-04T12:53:20;19.50;69.20
27224;DHT22;14965;50.660;13.226;2023-06-04T12:55:46;19.60;66.40
27224;DHT22;14965;50.660;13.226;2023-06-04T12:58:12;19.60;66.20
27224;DHT22;14965;50.660;13.226;2023-06-04T13:00:37;19.50;66.60
27224;DHT22;14965;50.660;13.226;2023-06-04T13:03:05;19.40;66.00
27224;DHT22;14965;50.660;13.226;2023-06-04T13:05:30;19.20;66.50
27224;DHT22;14965;50.660;13.226;2023-06-04T13:07:56;19.20;68.20
27224;DHT22;14965;50.660;13.226;2023-06-04T13:10:22;19.20;68.00
27224;DHT22;14965;50.660;13.226;2023-06-04T13:12:48;19.20;67.80
27224;DHT22;14965;50.660;13.226;2023-06-04T13:15:14;19.20;67.60
27224;DHT22;14965;50.660;13.226;2023-06-04T13:17:40;19.20;67.70
27224;DHT22;14965;50.660;13.226;2023-06-04T13:20:09;19.30;69.20
27224;DHT22;14965;50.660;13.226;2023-06-04T13:22:35;19.40;67.70
27224;DHT22;14965;50.660;13.226;2023-06-04T13:25:01;19.40;68.40
27224;DHT22;14965;50.660;13.226;2023-06-04T13:27:28;19.50;68.30
27224;DHT22;14965;50.660;13.226;2023-06-04T13:29:53;19.70;67.10
27224;DHT22;14965;50.660;13.226;2023-06-04T13:32:19;19.60;66.20
27224;DHT22;14965;50.660;13.226;2023-06-04T13:34:45;19.70;67.20
27224;DHT22;14965;50.660;13.226;2023-06-04T13:37:12;19.80;67.70
27224;DHT22;14965;50.660;13.226;2023-06-04T13:39:38;19.70;64.70
27224;DHT22;14965;50.660;13.226;2023-06-04T13:42:04;19.60;65.20
27224;DHT22;14965;50.660;13.226;2023-06-04T13:44:30;19.60;68.30
27224;DHT22;14965;50.660;13.226;2023-06-04T13:46:59;19.50;67.20
27224;DHT22;14965;50.660;13.226;2023-06-04T13:49:25;19.60;66.10
27224;DHT22;14965;50.660;13.226;2023-06-04T13:51:51;19.60;66.50
27224;DHT22;14965;50.660;13.226;2023-06-04T13:54:18;19.50;65.30
27224;DHT22;14965;50.660;13.226;2023-06-04T13:56:44;19.60;66.40
27224;DHT22;14965;50.660;13.226;2023-06-04T13:59:10;19.60;64.20
27224;DHT22;14965;50.660;13.226;2023-06-04T14:01:36;19.40;63.50
27224;DHT22;14965;50.660;13.226;2023-06-04T14:04:02;19.40;64.90
27224;DHT22;14965;50.660;13.226;2023-06-04T14:06:28;19.40;67.00
27224;DHT22;14965;50.660;13.226;2023-06-04T14:08:53;19.50;66.30
27224;DHT22;14965;50.660;13.226;2023-06-04T14:11:20;19.50;67.20
27224;DHT22;14965;50.660;13.226;2023-06-04T14:13:46;19.60;65.10
27224;DHT22;14965;50.660;13.226;2023-06-04T14:16:12;19.60;65.50
27224;DHT22;14965;50.660;13.226;2023-06-04T14:18:39;19.60;64.90
27224;DHT22;14965;50.660;13.226;2023-06-04T14:21:05;19.60;65.10
27224;DHT22;14965;50.660;13.226;2023-06-04T14:23:30;19.60;64.30
27224;DHT22;14965;50.660;13.226;2023-06-04T14:25:56;19.50;66.50
27224;DHT22;14965;50.660;13.226;2023-06-04T14:28:23;19.60;66.00
27224;DHT22;14965;50.660;13.226;2023-06-04T14:30:52;19.50;64.30
27224;DHT22;14965;50.660;13.226;2023-06-04T14:33:18;19.50;64.60
27224;DHT22;14965;50.660;13.226;2023-06-04T14:35:43;19.50;64.20
27224;DHT22;14965;50.660;13.226;2023-06-04T14:38:09;19.30;64.00
27224;DHT22;14965;50.660;13.226;2023-06-04T14:40:36;19.40;65.40
27224;DHT22;14965;50.660;13.226;2023-06-04T14:43:02;19.40;65.20
27224;DHT22;14965;50.660;13.226;2023-06-04T14:45:29;19.40;64.50
27224;DHT22;14965;50.660;13.226;2023-06-04T14:47:55;19.50;66.20
27224;DHT22;14965;50.660;13.226;2023-06-04T14:50:21;19.60;64.80
27224;DHT22;14965;50.660;13.226;2023-06-04T14:52:47;19.60;63.40
27224;DHT22;14965;50.660;13.226;2023-06-04T14:55:13;19.60;63.60
27224;DHT22;14965;50.660;13.226;2023-06-04T14:57:39;19.60;63.40
27224;DHT22;14965;50.660;13.226;2023-06-04T15:00:06;19.60;64.10
27224;DHT22;14965;50.660;13.226;2023-06-04T15:02:34;19.50;63.30
27224;DHT22;14965;50.660;13.226;2023-06-04T15:05:00;19.50;62.30
27224;DHT22;14965;50.660;13.226;2023-06-04T15:07:25;19.40;62.20
27224;DHT22;14965;50.660;13.226;2023-06-04T15:09:51;19.30;63.30
27224;DHT22;14965;50.660;13.226;2023-06-04T15:12:17;19.40;63.80
27224;DHT22;14965;50.660;13.226;2023-06-04T15:14:43;19.40;63.00
27224;DHT22;14965;50.660;13.226;2023-06-04T15:17:09;19.30;62.90